createdAt,value
2018-09-11T00:02:10.131Z,101912.61
2018-09-11T00:04:38.415Z,101910.52
2018-09-11T00:07:06.711Z,101911.52
2018-09-11T00:09:35.005Z,101903.06
2018-09-11T00:12:03.336Z,101905.16
2018-09-11T00:14:31.597Z,101907.81
2018-09-11T00:16:59.877Z,101898.29
2018-09-11T00:19:28.135Z,101896.70
2018-09-11T00:21:56.460Z,101909.77
2018-09-11T00:24:24.722Z,101901.66
2018-09-11T00:26:53.013Z,101895.64
2018-09-11T00:29:21.260Z,101891.52
2018-09-11T00:31:49.568Z,101888.52
2018-09-11T00:34:17.909Z,101889.78
2018-09-11T00:36:46.148Z,101881.91
2018-09-11T00:39:14.475Z,101867.99
2018-09-11T00:41:42.744Z,101865.69
2018-09-11T00:44:11.013Z,101865.62
2018-09-11T00:46:39.252Z,101856.71
2018-09-11T00:49:07.699Z,101853.58
2018-09-11T00:51:35.949Z,101844.75
2018-09-11T00:54:04.230Z,101843.94
2018-09-11T00:56:32.483Z,101840.09
2018-09-11T00:59:00.769Z,101837.86
2018-09-11T01:01:29.031Z,101841.69
2018-09-11T01:03:57.313Z,101856.17
2018-09-11T01:06:25.613Z,101855.90
2018-09-11T01:08:53.896Z,101862.44
2018-09-11T01:11:22.149Z,101860.48
2018-09-11T01:13:50.918Z,101862.14
2018-09-11T01:16:19.194Z,101860.48
2018-09-11T01:18:47.470Z,101850.17
2018-09-11T01:21:15.709Z,101856.61
2018-09-11T01:23:43.979Z,101864.32
2018-09-11T01:26:12.233Z,101868.63
2018-09-11T01:28:40.497Z,101869.69
2018-09-11T01:31:08.747Z,101870.53
2018-09-11T01:33:37.013Z,101876.91
2018-09-11T01:36:05.285Z,101887.08
2018-09-11T01:38:33.721Z,101890.13
2018-09-11T01:41:01.965Z,101885.47
2018-09-11T01:43:30.213Z,101876.12
2018-09-11T01:45:58.504Z,101877.19
2018-09-11T01:48:26.757Z,101874.27
2018-09-11T01:50:55.035Z,101865.84
2018-09-11T01:53:23.281Z,101874.81
2018-09-11T01:55:52.584Z,101885.80
2018-09-11T01:58:21.881Z,101888.91
2018-09-11T02:00:50.168Z,101886.48
2018-09-11T02:03:18.520Z,101874.23
2018-09-11T02:05:46.809Z,101882.05
2018-09-11T02:08:15.093Z,101878.98
2018-09-11T02:10:43.369Z,101881.23
2018-09-11T02:13:11.613Z,101883.29
2018-09-11T02:15:39.904Z,101874.81
2018-09-11T02:18:08.165Z,101853.80
2018-09-11T02:20:36.432Z,101840.36
2018-09-11T02:23:04.677Z,101827.41
2018-09-11T02:25:32.964Z,101825.95
2018-09-11T02:28:01.214Z,101818.59
2018-09-11T02:30:29.459Z,101821.78
2018-09-11T02:32:57.729Z,101817.95
2018-09-11T02:38:43.981Z,101807.87
2018-09-11T02:41:12.297Z,101806.97
2018-09-11T02:43:40.592Z,101805.99
2018-09-11T02:46:08.842Z,101811.49
2018-09-11T02:48:37.149Z,101818.03
2018-09-11T02:51:05.697Z,101812.05
2018-09-11T02:53:33.985Z,101807.18
2018-09-11T02:56:02.261Z,101796.52
2018-09-11T02:58:30.604Z,101798.41
2018-09-11T03:00:58.813Z,101803.05
2018-09-11T03:03:27.112Z,101798.41
2018-09-11T03:05:55.438Z,101798.81
2018-09-11T03:08:23.936Z,101798.88
2018-09-11T03:10:52.185Z,101802.58
2018-09-11T03:13:20.493Z,101809.61
2018-09-11T03:15:48.804Z,101804.87
2018-09-11T03:18:17.125Z,101814.12
2018-09-11T03:20:45.382Z,101809.47
2018-09-11T03:23:13.642Z,101805.98
2018-09-11T03:25:41.945Z,101801.34
2018-09-11T03:28:10.310Z,101805.36
2018-09-11T03:30:38.681Z,101800.30
2018-09-11T03:33:07.013Z,101796.69
2018-09-11T03:35:35.369Z,101797.72
2018-09-11T03:38:04.746Z,101798.89
2018-09-11T03:40:33.070Z,101795.99
2018-09-11T03:43:01.368Z,101792.14
2018-09-11T03:45:29.673Z,101790.55
2018-09-11T03:47:58.022Z,101793.69
2018-09-11T03:50:26.473Z,101789.37
2018-09-11T03:52:54.761Z,101782.60
2018-09-11T03:55:23.121Z,101776.97
2018-09-11T03:57:51.389Z,101780.19
2018-09-11T04:00:19.695Z,101776.77
2018-09-11T04:02:47.980Z,101773.90
2018-09-11T04:05:16.328Z,101779.70
2018-09-11T04:07:44.552Z,101779.56
2018-09-11T04:10:12.834Z,101775.22
2018-09-11T04:12:41.093Z,101766.95
2018-09-11T04:15:09.625Z,101765.28
2018-09-11T04:17:40.345Z,101761.32
2018-09-11T04:20:08.648Z,101760.83
2018-09-11T04:22:38.130Z,101764.25
2018-09-11T04:25:06.441Z,101761.81
2018-09-11T04:27:34.908Z,101757.50
2018-09-11T04:30:03.196Z,101766.75
2018-09-11T04:32:31.489Z,101766.89
2018-09-11T04:34:59.752Z,101764.54
2018-09-11T04:37:28.145Z,101759.59
2018-09-11T04:39:56.500Z,101755.00
2018-09-11T04:42:26.029Z,101756.58
2018-09-11T04:44:54.310Z,101759.31
2018-09-11T04:47:22.627Z,101765.23
2018-09-11T04:49:50.901Z,101763.81
2018-09-11T04:52:19.231Z,101770.08
2018-09-11T04:54:49.210Z,101758.77
2018-09-11T04:57:17.566Z,101752.22
2018-09-11T04:59:45.826Z,101747.33
2018-09-11T05:02:14.141Z,101742.33
2018-09-11T05:04:42.394Z,101741.44
2018-09-11T05:07:10.702Z,101743.09
2018-09-11T05:10:42.229Z,101733.02
2018-09-11T05:13:10.525Z,101717.84
2018-09-11T05:15:38.809Z,101717.58
2018-09-11T05:18:07.137Z,101708.97
2018-09-11T05:20:35.512Z,101703.17
2018-09-11T05:23:03.817Z,101710.89
2018-09-11T05:25:32.089Z,101722.31
2018-09-11T05:28:00.462Z,101722.18
2018-09-11T05:30:28.865Z,101707.77
2018-09-11T05:32:57.237Z,101701.72
2018-09-11T05:35:25.533Z,101694.55
2018-09-11T05:37:54.909Z,101693.58
2018-09-11T05:40:23.209Z,101691.20
2018-09-11T05:42:51.465Z,101700.18
2018-09-11T05:45:19.757Z,101697.88
2018-09-11T05:47:48.232Z,101697.54
2018-09-11T05:50:16.729Z,101693.70
2018-09-11T05:52:45.001Z,101693.40
2018-09-11T05:55:13.308Z,101691.41
2018-09-11T05:57:41.595Z,101689.66
2018-09-11T06:00:10.003Z,101684.70
2018-09-11T06:02:38.381Z,101688.60
2018-09-11T06:05:06.784Z,101674.89
2018-09-11T06:07:36.177Z,101663.44
2018-09-11T06:10:04.513Z,101666.81
2018-09-11T06:12:33.816Z,101663.67
2018-09-11T06:15:02.217Z,101659.17
2018-09-11T06:17:30.499Z,101652.76
2018-09-11T06:19:58.801Z,101649.28
2018-09-11T06:22:27.084Z,101633.34
2018-09-11T06:24:55.394Z,101641.57
2018-09-11T06:27:23.816Z,101638.92
2018-09-11T06:29:52.085Z,101636.84
2018-09-11T06:32:20.465Z,101631.02
2018-09-11T06:34:48.773Z,101616.61
2018-09-11T06:37:17.065Z,101627.38
2018-09-11T06:39:45.431Z,101628.27
2018-09-11T06:42:13.717Z,101626.61
2018-09-11T06:44:42.020Z,101627.83
2018-09-11T06:47:10.381Z,101631.32
2018-09-11T06:49:38.570Z,101631.80
2018-09-11T06:52:07.920Z,101635.39
2018-09-11T06:54:36.396Z,101639.01
2018-09-11T06:57:04.685Z,101642.48
2018-09-11T06:59:32.945Z,101620.39
2018-09-11T07:02:01.359Z,101609.67
2018-09-11T07:04:30.609Z,101623.83
2018-09-11T07:07:00.046Z,101609.25
2018-09-11T07:09:28.311Z,101606.36
2018-09-11T07:11:56.598Z,101603.70
2018-09-11T07:14:24.922Z,101613.46
2018-09-11T07:16:53.332Z,101611.56
2018-09-11T07:19:21.657Z,101604.69
2018-09-11T07:21:50.506Z,101611.16
2018-09-11T07:24:18.836Z,101604.20
2018-09-11T07:26:47.134Z,101615.61
2018-09-11T07:29:15.501Z,101603.69
2018-09-11T07:31:43.909Z,101599.33
2018-09-11T07:34:12.216Z,101596.45
2018-09-11T07:36:40.488Z,101597.70
2018-09-11T07:39:09.233Z,101595.18
2018-09-11T07:41:37.541Z,101583.21
2018-09-11T07:44:05.858Z,101588.51
2018-09-11T07:46:34.137Z,101586.53
2018-09-11T07:49:02.577Z,101566.80
2018-09-11T07:51:30.863Z,101571.16
2018-09-11T07:53:59.154Z,101562.26
2018-09-11T07:56:27.428Z,101578.41
2018-09-11T07:58:55.741Z,101576.84
2018-09-11T08:01:24.022Z,101569.51
2018-09-11T08:03:52.370Z,101573.10
2018-09-11T08:06:20.688Z,101572.52
2018-09-11T08:08:49.043Z,101558.35
2018-09-11T08:11:17.341Z,101567.89
2018-09-11T08:13:45.687Z,101577.50
2018-09-11T08:16:14.049Z,101563.91
2018-09-11T08:18:42.373Z,101560.13
2018-09-11T08:21:10.961Z,101583.88
2018-09-11T08:23:39.233Z,101588.33
2018-09-11T08:26:07.617Z,101603.26
2018-09-11T08:28:35.909Z,101606.77
2018-09-11T08:31:04.225Z,101626.69
2018-09-11T08:33:32.597Z,101613.59
2018-09-11T08:36:00.917Z,101603.66
2018-09-11T08:38:29.245Z,101583.30
2018-09-11T08:40:57.557Z,101596.56
2018-09-11T08:43:25.838Z,101596.94
2018-09-11T08:45:54.161Z,101597.84
2018-09-11T08:48:22.478Z,101591.81
2018-09-11T08:50:50.812Z,101596.69
2018-09-11T08:53:19.069Z,101595.92
2018-09-11T08:55:47.373Z,101606.28
2018-09-11T08:58:15.669Z,101608.72
2018-09-11T09:00:45.053Z,101602.47
2018-09-11T09:03:13.368Z,101590.88
2018-09-11T09:05:41.701Z,101584.79
2018-09-11T09:08:10.037Z,101587.11
2018-09-11T09:10:38.300Z,101587.89
2018-09-11T09:13:06.704Z,101575.09
2018-09-11T09:15:35.105Z,101581.55
2018-09-11T09:18:04.388Z,101594.92
2018-09-11T09:20:32.768Z,101591.77
2018-09-11T09:23:01.077Z,101579.95
2018-09-11T09:25:29.365Z,101576.92
2018-09-11T09:27:57.665Z,101573.72
2018-09-11T09:30:26.271Z,101567.25
2018-09-11T09:32:54.673Z,101572.91
2018-09-11T09:35:23.094Z,101573.77
2018-09-11T09:37:52.598Z,101576.67
2018-09-11T09:40:20.957Z,101584.45
2018-09-11T09:42:49.469Z,101579.73
2018-09-11T09:45:17.765Z,101576.05
2018-09-11T09:47:48.073Z,101590.72
2018-09-11T09:50:16.357Z,101592.27
2018-09-11T09:52:44.681Z,101590.89
2018-09-11T09:55:12.967Z,101588.18
2018-09-11T09:57:44.190Z,101591.98
2018-09-11T10:00:12.613Z,101589.78
2018-09-11T10:02:42.877Z,101569.41
2018-09-11T10:05:11.233Z,101572.39
2018-09-11T10:07:39.594Z,101572.11
2018-09-11T10:10:07.981Z,101572.83
2018-09-11T10:12:36.345Z,101578.81
2018-09-11T10:15:04.689Z,101581.47
2018-09-11T10:17:32.983Z,101595.98
2018-09-11T10:20:01.278Z,101579.59
2018-09-11T10:22:29.645Z,101582.79
2018-09-11T10:24:58.210Z,101592.22
2018-09-11T10:27:26.611Z,101591.31
2018-09-11T10:29:54.875Z,101575.60
2018-09-11T10:32:23.265Z,101563.66
2018-09-11T10:34:51.597Z,101559.36
2018-09-11T10:37:19.872Z,101563.59
2018-09-11T10:39:51.048Z,101558.34
2018-09-11T10:42:19.353Z,101552.86
2018-09-11T10:44:47.687Z,101563.67
2018-09-11T10:47:15.997Z,101575.82
2018-09-11T10:49:44.349Z,101564.84
2018-09-11T10:52:12.641Z,101569.80
2018-09-11T10:54:42.093Z,101567.00
2018-09-11T10:57:11.510Z,101581.68
2018-09-11T10:59:39.808Z,101571.86
2018-09-11T11:02:08.134Z,101574.59
2018-09-11T11:04:36.441Z,101569.95
2018-09-11T11:07:04.806Z,101563.22
2018-09-11T11:09:33.079Z,101563.11
2018-09-11T11:12:01.413Z,101567.37
2018-09-11T11:14:29.702Z,101581.94
2018-09-11T11:16:58.085Z,101568.78
2018-09-11T11:19:26.293Z,101581.98
2018-09-11T11:21:54.761Z,101574.09
2018-09-11T11:24:23.037Z,101568.91
2018-09-11T11:26:51.508Z,101563.44
2018-09-11T11:29:19.749Z,101594.88
2018-09-11T11:31:48.069Z,101585.64
2018-09-11T11:37:49.994Z,101585.91
2018-09-11T11:40:18.293Z,101577.23
2018-09-11T11:42:46.650Z,101563.29
2018-09-11T11:45:14.925Z,101560.97
2018-09-11T11:47:43.381Z,101564.91
2018-09-11T11:50:11.677Z,101562.09
2018-09-11T11:52:40.087Z,101557.83
2018-09-11T11:55:08.673Z,101563.53
2018-09-11T11:57:36.971Z,101549.38
2018-09-11T12:00:05.347Z,101545.42
2018-09-11T12:02:33.705Z,101549.77
2018-09-11T12:05:01.991Z,101553.81
2018-09-11T12:07:30.334Z,101544.72
2018-09-11T12:09:58.610Z,101562.14
2018-09-11T12:12:27.949Z,101556.30
2018-09-11T12:14:56.337Z,101546.19
2018-09-11T12:17:24.735Z,101548.54
2018-09-11T12:19:53.054Z,101568.87
2018-09-11T12:22:22.513Z,101559.88
2018-09-11T12:24:50.995Z,101559.64
2018-09-11T12:27:19.537Z,101573.02
2018-09-11T12:29:48.033Z,101593.30
2018-09-11T12:32:16.529Z,101582.73
2018-09-11T12:34:44.883Z,101585.83
2018-09-11T12:37:14.165Z,101563.99
2018-09-11T12:39:42.503Z,101571.33
2018-09-11T12:42:11.170Z,101567.14
2018-09-11T12:44:39.510Z,101573.65
2018-09-11T12:47:08.602Z,101566.02
2018-09-11T12:49:36.679Z,101567.73
2018-09-11T12:52:04.970Z,101560.31
2018-09-11T12:54:33.271Z,101576.53
2018-09-11T12:57:01.548Z,101570.16
2018-09-11T12:59:29.885Z,101557.52
2018-09-11T13:01:58.262Z,101565.28
2018-09-11T13:04:27.593Z,101567.64
2018-09-11T13:06:55.926Z,101554.61
2018-09-11T13:09:24.273Z,101549.61
2018-09-11T13:11:52.586Z,101546.26
2018-09-11T13:14:21.005Z,101556.80
2018-09-11T13:16:53.091Z,101561.44
2018-09-11T13:19:21.421Z,101561.94
2018-09-11T13:21:49.851Z,101563.77
2018-09-11T13:24:18.334Z,101568.91
2018-09-11T13:26:46.793Z,101569.91
2018-09-11T13:29:15.138Z,101563.13
2018-09-11T13:31:43.694Z,101584.92
2018-09-11T13:34:11.965Z,101577.51
2018-09-11T13:36:40.277Z,101565.52
2018-09-11T13:39:09.397Z,101575.46
2018-09-11T13:41:37.773Z,101595.91
2018-09-11T13:44:07.081Z,101578.39
2018-09-11T13:46:36.525Z,101589.56
2018-09-11T13:49:04.901Z,101589.56
2018-09-11T13:51:33.377Z,101586.25
2018-09-11T13:54:01.712Z,101594.14
2018-09-11T13:56:30.069Z,101593.48
2018-09-11T13:58:58.445Z,101585.09
2018-09-11T14:01:27.862Z,101586.52
2018-09-11T14:03:56.350Z,101587.84
2018-09-11T14:06:24.663Z,101596.01
2018-09-11T14:08:56.886Z,101579.14
2018-09-11T14:11:25.664Z,101581.55
2018-09-11T14:13:55.033Z,101587.11
2018-09-11T14:16:23.334Z,101593.05
2018-09-11T14:18:51.681Z,101588.52
2018-09-11T14:21:20.426Z,101582.33
2018-09-11T14:23:48.658Z,101583.23
2018-09-11T14:26:16.995Z,101572.93
2018-09-11T14:28:45.401Z,101576.49
2018-09-11T14:31:13.737Z,101579.16
2018-09-11T14:33:42.137Z,101586.37
2018-09-11T14:36:10.457Z,101581.06
2018-09-11T14:38:38.782Z,101590.41
2018-09-11T14:41:07.070Z,101584.22
2018-09-11T14:43:35.389Z,101585.72
2018-09-11T14:46:03.897Z,101582.45
2018-09-11T14:48:32.298Z,101576.37
2018-09-11T14:51:00.604Z,101576.09
2018-09-11T14:53:29.125Z,101574.00
2018-09-11T14:55:57.458Z,101596.14
2018-09-11T14:58:25.881Z,101572.97
2018-09-11T15:00:54.312Z,101573.94
2018-09-11T15:03:22.629Z,101577.83
2018-09-11T15:05:51.044Z,101586.42
2018-09-11T15:08:19.341Z,101587.97
2018-09-11T15:10:47.678Z,101590.75
2018-09-11T15:13:16.258Z,101583.55
2018-09-11T15:15:44.621Z,101593.20
2018-09-11T15:18:14.117Z,101585.69
2018-09-11T15:20:42.931Z,101586.25
2018-09-11T15:23:11.281Z,101587.52
2018-09-11T15:25:39.592Z,101589.56
2018-09-11T15:28:07.969Z,101604.64
2018-09-11T15:30:36.352Z,101597.89
2018-09-11T15:33:04.649Z,101600.88
2018-09-11T15:35:32.996Z,101592.59
2018-09-11T15:38:01.285Z,101595.42
2018-09-11T15:40:29.603Z,101596.58
2018-09-11T15:42:57.915Z,101615.12
2018-09-11T15:45:26.225Z,101594.59
2018-09-11T15:47:55.593Z,101598.22
2018-09-11T15:50:23.941Z,101597.45
2018-09-11T15:52:52.251Z,101595.97
2018-09-11T15:55:20.530Z,101596.67
2018-09-11T15:57:48.934Z,101598.17
2018-09-11T16:00:17.298Z,101606.62
2018-09-11T16:02:45.932Z,101608.34
2018-09-11T16:05:15.386Z,101592.81
2018-09-11T16:07:43.773Z,101596.80
2018-09-11T16:10:13.069Z,101591.48
2018-09-11T16:12:41.369Z,101597.58
2018-09-11T16:15:09.762Z,101604.74
2018-09-11T16:17:38.042Z,101595.41
2018-09-11T16:20:06.973Z,101593.64
2018-09-11T16:22:35.322Z,101592.33
2018-09-11T16:25:03.657Z,101605.52
2018-09-11T16:27:31.961Z,101607.16
2018-09-11T16:30:00.401Z,101602.27
2018-09-11T16:32:28.701Z,101601.31
2018-09-11T16:34:57.007Z,101599.88
2018-09-11T16:37:25.334Z,101593.91
2018-09-11T16:39:54.657Z,101600.66
2018-09-11T16:42:23.061Z,101602.31
2018-09-11T16:44:51.406Z,101597.19
2018-09-11T16:47:19.989Z,101606.13
2018-09-11T16:49:48.485Z,101610.05
2018-09-11T16:52:16.796Z,101610.77
2018-09-11T16:54:45.114Z,101602.54
2018-09-11T16:57:13.385Z,101622.19
2018-09-11T16:59:41.695Z,101620.16
2018-09-11T17:02:10.085Z,101611.88
2018-09-11T17:04:38.343Z,101632.66
2018-09-11T17:07:06.721Z,101629.55
2018-09-11T17:09:35.071Z,101656.94
2018-09-11T17:12:03.354Z,101650.57
2018-09-11T17:14:31.663Z,101635.84
2018-09-11T17:16:59.933Z,101641.69
2018-09-11T17:19:28.247Z,101638.95
2018-09-11T17:21:56.769Z,101627.38
2018-09-11T17:24:25.069Z,101629.86
2018-09-11T17:26:53.350Z,101631.74
2018-09-11T17:29:21.697Z,101639.22
2018-09-11T17:31:49.973Z,101654.00
2018-09-11T17:34:18.306Z,101651.50
2018-09-11T17:36:46.578Z,101642.86
2018-09-11T17:39:14.841Z,101647.96
2018-09-11T17:41:43.170Z,101641.66
2018-09-11T17:44:11.564Z,101636.55
2018-09-11T17:46:39.861Z,101649.72
2018-09-11T17:49:08.163Z,101636.05
2018-09-11T17:51:36.428Z,101639.63
2018-09-11T17:54:05.099Z,101643.69
2018-09-11T17:56:33.457Z,101660.64
2018-09-11T17:59:01.739Z,101659.72
2018-09-11T18:01:30.033Z,101662.30
2018-09-11T18:03:58.393Z,101662.27
2018-09-11T18:06:26.732Z,101672.80
2018-09-11T18:08:55.658Z,101659.16
2018-09-11T18:11:23.969Z,101673.78
2018-09-11T18:13:52.490Z,101669.33
2018-09-11T18:16:20.789Z,101671.63
2018-09-11T18:18:49.139Z,101682.91
2018-09-11T18:21:18.481Z,101682.31
2018-09-11T18:23:46.790Z,101682.50
2018-09-11T18:26:15.131Z,101671.20
2018-09-11T18:28:43.398Z,101680.63
2018-09-11T18:31:11.706Z,101686.22
2018-09-11T18:33:40.165Z,101688.50
2018-09-11T18:36:08.535Z,101684.09
2018-09-11T18:38:37.821Z,101682.38
2018-09-11T18:41:07.178Z,101692.52
2018-09-11T18:43:35.513Z,101686.38
2018-09-11T18:46:04.893Z,101693.88
2018-09-11T18:48:33.209Z,101708.81
2018-09-11T18:51:01.471Z,101702.12
2018-09-11T18:53:29.789Z,101701.09
2018-09-11T18:55:58.198Z,101698.31
2018-09-11T18:58:26.541Z,101697.72
2018-09-11T19:00:54.802Z,101706.96
2018-09-11T19:03:23.267Z,101706.84
2018-09-11T19:05:51.591Z,101709.16
2018-09-11T19:08:19.925Z,101697.14
2018-09-11T19:10:48.513Z,101702.42
2018-09-11T19:13:16.820Z,101713.04
2018-09-11T19:15:46.125Z,101714.11
2018-09-11T19:18:14.477Z,101717.20
2018-09-11T19:20:42.755Z,101721.16
2018-09-11T19:23:11.112Z,101717.69
2018-09-11T19:25:39.379Z,101718.33
2018-09-11T19:28:08.952Z,101712.70
2018-09-11T19:30:37.843Z,101713.48
2018-09-11T19:33:06.181Z,101716.22
2018-09-11T19:35:34.447Z,101726.04
2018-09-11T19:38:03.033Z,101728.69
2018-09-11T19:40:31.345Z,101728.39
2018-09-11T19:42:59.625Z,101723.70
2018-09-11T19:45:27.942Z,101726.50
2018-09-11T19:47:56.213Z,101739.89
2018-09-11T19:50:25.544Z,101737.92
2018-09-11T19:52:53.793Z,101735.85
2018-09-11T19:55:22.303Z,101731.95
2018-09-11T19:57:50.582Z,101740.50
2018-09-11T20:00:18.868Z,101736.56
2018-09-11T20:02:47.137Z,101737.81
2018-09-11T20:05:16.533Z,101739.32
2018-09-11T20:07:44.822Z,101743.06
2018-09-11T20:10:13.325Z,101744.20
2018-09-11T20:12:41.605Z,101744.77
2018-09-11T20:15:10.957Z,101742.72
2018-09-11T20:17:39.253Z,101738.75
2018-09-11T20:20:07.510Z,101744.05
2018-09-11T20:22:36.853Z,101741.21
2018-09-11T20:25:05.393Z,101743.59
2018-09-11T20:27:33.724Z,101748.39
2018-09-11T20:30:01.985Z,101739.17
2018-09-11T20:32:30.391Z,101744.23
2018-09-11T20:34:58.698Z,101758.00
2018-09-11T20:37:27.122Z,101752.17
2018-09-11T20:39:55.424Z,101757.02
2018-09-11T20:42:23.735Z,101756.52
2018-09-11T20:44:52.153Z,101754.25
2018-09-11T20:47:20.411Z,101755.01
2018-09-11T20:49:48.731Z,101760.98
2018-09-11T20:52:17.045Z,101752.36
2018-09-11T20:54:45.361Z,101751.34
2018-09-11T20:57:13.697Z,101742.52
2018-09-11T20:59:42.306Z,101748.30
2018-09-11T21:02:10.653Z,101746.28
2018-09-11T21:04:38.937Z,101746.38
2018-09-11T21:07:07.406Z,101744.11
2018-09-11T21:09:35.673Z,101742.40
2018-09-11T21:12:05.037Z,101749.39
2018-09-11T21:14:33.358Z,101765.94
2018-09-11T21:17:01.637Z,101747.82
2018-09-11T21:19:29.969Z,101756.67
2018-09-11T21:21:58.293Z,101754.64
2018-09-11T21:24:26.621Z,101757.58
2018-09-11T21:26:54.902Z,101754.64
2018-09-11T21:29:23.205Z,101752.28
2018-09-11T21:31:51.521Z,101745.19
2018-09-11T21:34:19.833Z,101744.56
2018-09-11T21:36:48.328Z,101756.61
2018-09-11T21:39:16.712Z,101746.02
2018-09-11T21:41:45.073Z,101746.18
2018-09-11T21:44:13.370Z,101748.23
2018-09-11T21:46:41.666Z,101746.92
2018-09-11T21:49:09.977Z,101754.24
2018-09-11T21:51:38.282Z,101756.05
2018-09-11T21:54:06.889Z,101755.83
2018-09-11T21:56:35.253Z,101756.12
2018-09-11T21:59:03.581Z,101751.38
2018-09-11T22:01:37.241Z,101748.94
2018-09-11T22:04:05.641Z,101738.71
2018-09-11T22:06:33.984Z,101739.69
2018-09-11T22:09:02.312Z,101742.88
2018-09-11T22:11:30.621Z,101740.95
2018-09-11T22:13:58.904Z,101740.09
2018-09-11T22:16:27.212Z,101740.58
2018-09-11T22:18:55.535Z,101742.05
2018-09-11T22:21:23.845Z,101744.58
2018-09-11T22:23:52.144Z,101744.69
2018-09-11T22:26:20.462Z,101750.59
2018-09-11T22:28:48.746Z,101745.52
2018-09-11T22:31:17.045Z,101751.77
2018-09-11T22:33:45.370Z,101756.02
2018-09-11T22:36:13.910Z,101760.73
2018-09-11T22:38:42.189Z,101764.64
2018-09-11T22:41:10.491Z,101770.73
2018-09-11T22:43:38.915Z,101770.02
2018-09-11T22:46:07.293Z,101769.66
2018-09-11T22:48:35.622Z,101773.57
2018-09-11T22:51:03.986Z,101775.91
2018-09-11T22:53:32.264Z,101787.74
2018-09-11T22:56:00.613Z,101768.20
2018-09-11T22:58:28.941Z,101761.66
2018-09-11T23:00:57.222Z,101778.02
2018-09-11T23:03:25.524Z,101774.09
2018-09-11T23:05:53.813Z,101784.82
2018-09-11T23:08:22.253Z,101769.22
2018-09-11T23:10:50.529Z,101777.67
2018-09-11T23:13:18.850Z,101769.78
2018-09-11T23:15:47.133Z,101756.81
2018-09-11T23:18:15.427Z,101754.21
2018-09-11T23:20:43.704Z,101763.20
2018-09-11T23:23:12.117Z,101755.87
2018-09-11T23:25:40.401Z,101760.45
2018-09-11T23:28:08.744Z,101759.32
2018-09-11T23:30:37.041Z,101763.19
2018-09-11T23:33:05.396Z,101762.45
2018-09-11T23:35:33.755Z,101756.87
2018-09-11T23:45:01.400Z,101762.73
2018-09-11T23:47:29.709Z,101763.85
2018-09-11T23:49:58.156Z,101757.53
2018-09-11T23:52:26.431Z,101758.70
2018-09-11T23:54:54.732Z,101760.64
2018-09-11T23:57:23.002Z,101753.56
2018-09-11T23:59:51.289Z,101765.02
